createdAt,value
2022-10-18T00:00:02.919Z,6
2022-10-18T00:01:10.022Z,5.9
2022-10-18T00:02:17.245Z,5.9
2022-10-18T00:04:31.369Z,5.9
2022-10-18T00:05:37.967Z,5.9
2022-10-18T00:06:45.027Z,5.9
2022-10-18T00:07:52.103Z,5.9
2022-10-18T00:08:59.367Z,5.9
2022-10-18T00:10:06.334Z,5.9
2022-10-18T00:11:12.891Z,5.8
2022-10-18T00:12:20.043Z,5.9
2022-10-18T00:13:27.151Z,5.8
2022-10-18T00:15:41.338Z,5.8
2022-10-18T00:16:47.972Z,5.7
2022-10-18T00:19:02.213Z,5.7
2022-10-18T00:20:09.346Z,5.7
2022-10-18T00:21:16.407Z,5.7
2022-10-18T00:23:30.046Z,5.7
2022-10-18T00:24:37.179Z,5.7
2022-10-18T00:25:44.328Z,5.7
2022-10-18T00:26:51.325Z,5.7
2022-10-18T00:27:57.948Z,5.6
2022-10-18T00:29:05.051Z,5.6
2022-10-18T00:30:12.148Z,5.5
2022-10-18T00:31:19.343Z,5.4
2022-10-18T00:32:26.362Z,5.5
2022-10-18T00:33:32.926Z,5.4
2022-10-18T00:34:40.115Z,5.3
2022-10-18T00:35:47.189Z,5.3
2022-10-18T00:36:54.316Z,5.3
2022-10-18T00:38:01.367Z,5.3
2022-10-18T00:39:07.999Z,5.3
2022-10-18T00:40:15.071Z,5.3
2022-10-18T00:41:22.227Z,5.3
2022-10-18T00:42:29.710Z,5.3
2022-10-18T00:43:35.873Z,5.2
2022-10-18T00:44:42.977Z,5.2
2022-10-18T00:45:50.108Z,5.2
2022-10-18T00:46:57.228Z,5.2
2022-10-18T00:48:04.281Z,5.2
2022-10-18T00:49:10.890Z,5.2
2022-10-18T00:50:18.056Z,5.2
2022-10-18T00:51:25.124Z,5.1
2022-10-18T00:52:34.652Z,5.1
2022-10-18T00:53:39.306Z,5.1
2022-10-18T00:54:46.394Z,5.1
2022-10-18T00:57:00.261Z,5.1
2022-10-18T00:58:07.168Z,5
2022-10-18T00:59:14.327Z,5
2022-10-18T01:00:20.929Z,5
2022-10-18T01:01:28.585Z,5
2022-10-18T01:02:35.097Z,5
2022-10-18T01:03:42.219Z,5
2022-10-18T01:04:49.340Z,4.9
2022-10-18T01:05:55.992Z,4.9
2022-10-18T01:08:10.093Z,4.9
2022-10-18T01:09:17.202Z,4.8
2022-10-18T01:10:24.374Z,4.8
2022-10-18T01:11:30.868Z,4.8
2022-10-18T01:12:38.017Z,4.8
2022-10-18T01:13:45.119Z,4.8
2022-10-18T01:14:52.195Z,4.8
2022-10-18T01:15:59.430Z,4.8
2022-10-18T01:17:05.937Z,4.8
2022-10-18T01:18:12.987Z,4.8
2022-10-18T01:19:20.124Z,4.7
2022-10-18T01:20:27.247Z,4.7
2022-10-18T01:21:34.356Z,4.7
2022-10-18T01:22:40.886Z,4.7
2022-10-18T01:23:48.048Z,4.7
2022-10-18T01:24:54.673Z,4.7
2022-10-18T01:26:02.270Z,4.7
2022-10-18T01:27:09.380Z,4.6
2022-10-18T01:28:15.930Z,4.6
2022-10-18T01:29:23.019Z,4.6
2022-10-18T01:30:30.169Z,4.6
2022-10-18T01:31:37.282Z,4.6
2022-10-18T01:32:44.347Z,4.6
2022-10-18T01:33:51.195Z,4.6
2022-10-18T01:34:58.040Z,4.6
2022-10-18T01:36:05.186Z,4.6
2022-10-18T01:38:19.387Z,4.6
2022-10-18T01:39:25.949Z,4.6
2022-10-18T01:40:33.052Z,4.6
2022-10-18T01:41:40.214Z,4.6
2022-10-18T01:42:47.287Z,4.6
2022-10-18T01:43:54.419Z,4.6
2022-10-18T01:45:01.051Z,4.6
2022-10-18T01:46:08.053Z,4.6
2022-10-18T01:47:15.188Z,4.6
2022-10-18T01:48:22.257Z,4.6
2022-10-18T01:49:29.416Z,4.6
2022-10-18T01:50:36.020Z,4.6
2022-10-18T01:51:43.025Z,4.6
2022-10-18T01:53:57.273Z,4.6
2022-10-18T01:55:03.824Z,4.5
2022-10-18T01:56:10.961Z,4.5
2022-10-18T01:57:18.083Z,4.5
2022-10-18T01:58:25.146Z,4.4
2022-10-18T01:59:32.279Z,4.4
2022-10-18T02:00:38.948Z,4.4
2022-10-18T02:01:45.982Z,4.4
2022-10-18T02:02:53.060Z,4.4
2022-10-18T02:04:00.151Z,4.4
2022-10-18T02:05:07.298Z,4.4
2022-10-18T02:06:13.908Z,4.4
2022-10-18T02:07:20.991Z,4.4
2022-10-18T02:08:28.047Z,4.4
2022-10-18T02:09:35.182Z,4.4
2022-10-18T02:11:48.950Z,4.3
2022-10-18T02:12:55.983Z,4.3
2022-10-18T02:14:03.077Z,4.3
2022-10-18T02:15:10.220Z,4.3
2022-10-18T02:16:17.344Z,4.2
2022-10-18T02:17:23.878Z,4.2
2022-10-18T02:19:38.110Z,4.2
2022-10-18T02:21:52.348Z,4.3
2022-10-18T02:24:06.041Z,4.4
2022-10-18T02:25:13.084Z,4.4
2022-10-18T02:26:20.220Z,4.4
2022-10-18T02:27:27.337Z,4.3
2022-10-18T02:28:33.918Z,4.3
2022-10-18T02:29:41.501Z,4.3
2022-10-18T02:30:48.149Z,4.3
2022-10-18T02:31:55.185Z,4.4
2022-10-18T02:33:02.360Z,4.4
2022-10-18T02:34:08.916Z,4.4
2022-10-18T02:35:16.026Z,4.4
2022-10-18T02:36:23.138Z,4.4
2022-10-18T02:37:30.277Z,4.4
2022-10-18T02:38:37.328Z,4.4
2022-10-18T02:39:43.970Z,4.4
2022-10-18T02:40:51.068Z,4.4
2022-10-18T02:41:58.126Z,4.4
2022-10-18T02:43:05.290Z,4.5
2022-10-18T02:44:12.336Z,4.5
2022-10-18T02:45:18.923Z,4.5
2022-10-18T02:47:33.396Z,4.5
2022-10-18T02:48:40.280Z,4.5
2022-10-18T02:49:47.379Z,4.5
2022-10-18T02:50:53.982Z,4.5
2022-10-18T02:52:01.041Z,4.4
2022-10-18T02:53:08.150Z,4.4
2022-10-18T02:54:15.276Z,4.4
2022-10-18T02:55:21.836Z,4.4
2022-10-18T02:56:28.971Z,4.4
2022-10-18T02:57:36.049Z,4.4
2022-10-18T02:58:43.157Z,4.4
2022-10-18T03:00:57.402Z,4.4
2022-10-18T03:02:03.942Z,4.4
2022-10-18T03:03:11.020Z,4.4
2022-10-18T03:04:18.215Z,4.4
2022-10-18T03:05:25.288Z,4.4
2022-10-18T03:06:32.348Z,4.5
2022-10-18T03:07:38.987Z,4.5
2022-10-18T03:08:46.044Z,4.5
2022-10-18T03:09:53.171Z,4.5
2022-10-18T03:11:00.357Z,4.5
2022-10-18T03:12:07.405Z,4.5
2022-10-18T03:13:13.985Z,4.5
2022-10-18T03:14:21.070Z,4.6
2022-10-18T03:15:28.167Z,4.6
2022-10-18T03:16:35.276Z,4.6
2022-10-18T03:17:42.378Z,4.6
2022-10-18T03:18:49.013Z,4.6
2022-10-18T03:19:56.200Z,4.6
2022-10-18T03:21:03.208Z,4.5
2022-10-18T03:22:10.307Z,4.5
2022-10-18T03:23:16.890Z,4.4
2022-10-18T03:24:23.977Z,4.4
2022-10-18T03:25:31.080Z,4.4
2022-10-18T03:26:38.260Z,4.4
2022-10-18T03:27:45.294Z,4.4
2022-10-18T03:28:51.905Z,4.4
2022-10-18T03:29:58.996Z,4.4
2022-10-18T03:31:06.168Z,4.3
2022-10-18T03:32:13.163Z,4.3
2022-10-18T03:33:20.282Z,4.3
2022-10-18T03:34:26.898Z,4.3
2022-10-18T03:35:34.011Z,4.3
2022-10-18T03:36:41.647Z,4.2
2022-10-18T03:37:48.249Z,4.2
2022-10-18T03:38:55.340Z,4.3
2022-10-18T03:40:01.876Z,4.2
2022-10-18T03:42:16.168Z,4.2
2022-10-18T03:43:23.174Z,4.2
2022-10-18T03:44:30.327Z,4.2
2022-10-18T03:45:36.887Z,4.2
2022-10-18T03:46:44.028Z,4.2
2022-10-18T03:47:51.092Z,4.2
2022-10-18T03:48:58.218Z,4.2
2022-10-18T03:50:05.348Z,4.2
2022-10-18T03:52:19.080Z,4.2
2022-10-18T03:53:26.157Z,4.2
2022-10-18T03:54:33.235Z,4.2
2022-10-18T03:55:40.319Z,4.1
2022-10-18T03:56:46.908Z,4.1
2022-10-18T03:57:54.023Z,4.2
2022-10-18T03:59:01.124Z,4.2
2022-10-18T04:00:08.246Z,4.2
2022-10-18T04:01:15.450Z,4.2
2022-10-18T04:02:21.929Z,4.2
2022-10-18T04:03:29.076Z,4.3
2022-10-18T04:04:36.170Z,4.3
2022-10-18T04:05:43.207Z,4.3
2022-10-18T04:06:50.321Z,4.3
2022-10-18T04:07:57.030Z,4.3
2022-10-18T04:09:06.526Z,4.3
2022-10-18T04:10:11.138Z,4.2
2022-10-18T04:11:18.305Z,4.2
2022-10-18T04:12:25.387Z,4.2
2022-10-18T04:13:31.938Z,4.2
2022-10-18T04:14:39.098Z,4.2
2022-10-18T04:15:46.183Z,4.2
2022-10-18T04:16:53.256Z,4.2
2022-10-18T04:20:14.070Z,4.2
2022-10-18T04:21:21.197Z,4.2
2022-10-18T04:23:37.990Z,4.2
2022-10-18T04:24:41.962Z,4.2
2022-10-18T04:25:49.090Z,4.2
2022-10-18T04:26:56.189Z,4.2
2022-10-18T04:28:03.269Z,4.2
2022-10-18T04:29:10.459Z,4.2
2022-10-18T04:30:16.996Z,4.1
2022-10-18T04:31:24.077Z,4.1
2022-10-18T04:32:31.231Z,4
2022-10-18T04:33:38.266Z,4
2022-10-18T04:34:44.862Z,4
2022-10-18T04:35:52.007Z,4
2022-10-18T04:36:59.599Z,4
2022-10-18T04:38:06.183Z,4
2022-10-18T04:39:13.277Z,4
2022-10-18T04:40:19.872Z,4
2022-10-18T04:41:27.013Z,4
2022-10-18T04:42:34.725Z,4
2022-10-18T04:43:41.200Z,3.9
2022-10-18T04:44:48.279Z,3.9
2022-10-18T04:45:55.399Z,3.9
2022-10-18T04:48:09.089Z,3.9
2022-10-18T04:49:16.182Z,3.9
2022-10-18T04:50:23.299Z,3.8
2022-10-18T04:51:29.939Z,3.8
2022-10-18T04:52:37.038Z,3.8
2022-10-18T04:53:45.190Z,3.8
2022-10-18T04:54:51.194Z,3.8
2022-10-18T04:55:58.315Z,3.8
2022-10-18T04:57:04.936Z,3.8
2022-10-18T04:58:11.989Z,3.8
2022-10-18T04:59:19.119Z,3.8
2022-10-18T05:00:26.248Z,3.8
2022-10-18T05:01:33.356Z,3.8
2022-10-18T05:02:39.914Z,3.8
2022-10-18T05:04:54.116Z,3.8
2022-10-18T05:06:02.811Z,3.8
2022-10-18T05:07:08.368Z,3.8
2022-10-18T05:08:14.917Z,3.8
2022-10-18T05:09:22.005Z,3.8
2022-10-18T05:10:29.124Z,3.8
2022-10-18T05:11:36.290Z,3.8
2022-10-18T05:12:43.323Z,3.8
2022-10-18T05:13:50.961Z,3.8
2022-10-18T05:14:57.060Z,3.8
2022-10-18T05:16:04.189Z,3.8
2022-10-18T05:17:11.215Z,3.8
2022-10-18T05:18:18.372Z,3.8
2022-10-18T05:20:32.018Z,3.8
2022-10-18T05:21:39.144Z,3.8
2022-10-18T05:22:46.298Z,3.8
2022-10-18T05:23:53.349Z,3.8
2022-10-18T05:24:59.971Z,3.8
2022-10-18T05:26:07.101Z,3.8
2022-10-18T05:27:14.168Z,3.7
2022-10-18T05:28:38.783Z,3.7
2022-10-18T05:30:34.972Z,3.7
2022-10-18T05:31:42.020Z,3.7
2022-10-18T05:32:49.148Z,19.3
2022-10-18T05:33:56.261Z,3.8
2022-10-18T05:35:03.326Z,3.8
2022-10-18T05:36:09.975Z,3.8
2022-10-18T05:37:17.069Z,3.8
2022-10-18T05:38:24.281Z,3.8
2022-10-18T05:39:31.275Z,3.8
2022-10-18T05:40:38.376Z,3.8
2022-10-18T05:41:44.995Z,3.8
2022-10-18T05:42:52.025Z,3.8
2022-10-18T05:43:59.248Z,3.8
2022-10-18T05:46:15.452Z,3.8
2022-10-18T05:47:19.948Z,3.8
2022-10-18T05:48:27.107Z,3.9
2022-10-18T05:50:41.296Z,3.9
2022-10-18T05:51:48.424Z,3.9
2022-10-18T05:52:56.958Z,4
2022-10-18T05:54:02.091Z,4
2022-10-18T05:55:09.189Z,4
2022-10-18T05:56:16.317Z,4
2022-10-18T05:57:23.389Z,4
2022-10-18T05:58:29.947Z,4
2022-10-18T05:59:37.117Z,4
2022-10-18T06:00:44.197Z,4
2022-10-18T06:01:51.327Z,4
2022-10-18T06:03:00.404Z,4
2022-10-18T06:04:05.021Z,4
2022-10-18T06:05:12.053Z,4
2022-10-18T06:06:19.240Z,4
2022-10-18T06:07:26.327Z,4
2022-10-18T06:08:32.895Z,4
2022-10-18T06:09:39.968Z,4
2022-10-18T06:10:47.129Z,4
2022-10-18T06:11:54.284Z,4
2022-10-18T06:13:01.332Z,4
2022-10-18T06:14:07.955Z,4
2022-10-18T06:15:15.029Z,4
2022-10-18T06:16:22.171Z,4
2022-10-18T06:18:36.320Z,4
2022-10-18T06:19:42.889Z,4
2022-10-18T06:20:50.106Z,4
2022-10-18T06:21:57.177Z,4
2022-10-18T06:23:04.245Z,4
2022-10-18T06:24:11.293Z,4
2022-10-18T06:25:17.940Z,4
2022-10-18T06:27:32.403Z,4
2022-10-18T06:28:39.352Z,4
2022-10-18T06:29:46.330Z,4
2022-10-18T06:30:52.919Z,4
2022-10-18T06:32:00.119Z,4
2022-10-18T06:33:07.130Z,4
2022-10-18T06:34:14.255Z,4
2022-10-18T06:35:21.347Z,4
2022-10-18T06:36:27.965Z,4
2022-10-18T06:37:35.381Z,4
2022-10-18T06:38:42.139Z,4
2022-10-18T06:39:49.579Z,4
2022-10-18T06:40:56.371Z,4
2022-10-18T06:42:02.930Z,4
2022-10-18T06:43:20.716Z,4
2022-10-18T06:46:31.368Z,3.9
2022-10-18T06:48:45.065Z,3.9
2022-10-18T06:49:52.169Z,3.9
2022-10-18T06:51:00.682Z,3.9
2022-10-18T06:52:06.418Z,3.9
2022-10-18T06:53:12.918Z,3.9
2022-10-18T06:54:20.073Z,3.9
2022-10-18T06:55:27.328Z,3.9
2022-10-18T06:56:34.347Z,3.9
2022-10-18T06:57:41.367Z,3.9
2022-10-18T06:58:48.025Z,3.9
2022-10-18T06:59:55.113Z,3.9
2022-10-18T07:01:02.179Z,3.9
2022-10-18T07:02:09.406Z,3.9
2022-10-18T07:03:16.378Z,3.9
2022-10-18T07:04:22.968Z,3.9
2022-10-18T07:05:30.177Z,3.8
2022-10-18T07:06:37.170Z,3.9
2022-10-18T07:08:51.480Z,3.9
2022-10-18T07:09:58.021Z,3.9
2022-10-18T07:11:05.087Z,3.9
2022-10-18T07:12:12.167Z,3.9
2022-10-18T07:13:32.121Z,3.9
2022-10-18T07:14:28.995Z,3.8
2022-10-18T07:16:40.091Z,3.9
2022-10-18T07:17:47.184Z,3.9
2022-10-18T07:18:54.283Z,3.9
2022-10-18T07:20:00.960Z,3.9
2022-10-18T07:21:08.008Z,3.9
2022-10-18T07:22:15.296Z,4
2022-10-18T07:23:22.198Z,4
2022-10-18T07:24:29.345Z,4
2022-10-18T07:25:36.041Z,4
2022-10-18T07:26:43.033Z,4
2022-10-18T07:27:50.099Z,4.1
2022-10-18T07:28:57.253Z,4.1
2022-10-18T07:30:04.334Z,4.2
2022-10-18T07:31:11.484Z,4.2
2022-10-18T07:32:18.063Z,4.2
2022-10-18T07:33:25.129Z,4.2
2022-10-18T07:34:32.235Z,4.2
2022-10-18T07:35:39.357Z,4.2
2022-10-18T07:36:46.551Z,4.2
2022-10-18T07:37:53.047Z,4.2
2022-10-18T07:39:00.158Z,4.2
2022-10-18T07:40:07.248Z,4.2
2022-10-18T07:41:14.407Z,4.2
2022-10-18T07:42:21.425Z,4.2
2022-10-18T07:43:28.020Z,4.2
2022-10-18T07:44:35.169Z,4.2
2022-10-18T07:45:42.229Z,4.2
2022-10-18T07:46:49.350Z,4.2
2022-10-18T07:50:10.156Z,4.2
2022-10-18T07:51:17.348Z,4.3
2022-10-18T07:52:24.378Z,4.3
2022-10-18T07:53:31.412Z,4.3
2022-10-18T07:54:38.103Z,4.4
2022-10-18T07:55:45.159Z,4.4
2022-10-18T07:56:52.309Z,4.4
2022-10-18T07:57:59.309Z,4.4
2022-10-18T07:59:05.918Z,4.4
2022-10-18T08:00:13.080Z,4.4
2022-10-18T08:01:20.175Z,4.4
2022-10-18T08:02:27.241Z,4.4
2022-10-18T08:03:34.420Z,4.4
2022-10-18T08:04:40.901Z,4.5
2022-10-18T08:05:48.079Z,4.5
2022-10-18T08:06:55.333Z,4.5
2022-10-18T08:08:04.342Z,4.6
2022-10-18T08:09:09.368Z,4.6
2022-10-18T08:10:15.914Z,4.6
2022-10-18T08:11:23.125Z,4.6
2022-10-18T08:12:30.215Z,4.7
2022-10-18T08:13:37.260Z,4.7
2022-10-18T08:14:44.386Z,4.7
2022-10-18T08:16:58.150Z,4.8
2022-10-18T08:18:05.204Z,4.8
2022-10-18T08:19:12.259Z,4.9
2022-10-18T08:20:30.354Z,5
2022-10-18T08:21:25.958Z,5
2022-10-18T08:22:34.876Z,5
2022-10-18T08:23:40.172Z,5.1
2022-10-18T08:24:47.277Z,5.1
2022-10-18T08:25:54.407Z,5.2
2022-10-18T08:27:01.018Z,5.2
2022-10-18T08:28:08.099Z,5.2
2022-10-18T08:29:23.182Z,5.2
2022-10-18T08:31:29.512Z,5.3
2022-10-18T08:32:35.994Z,5.3
2022-10-18T08:33:43.080Z,5.4
2022-10-18T08:34:50.208Z,5.4
2022-10-18T08:35:57.278Z,5.4
2022-10-18T08:37:04.491Z,5.5
2022-10-18T08:38:15.135Z,5.5
2022-10-18T08:39:18.070Z,5.6
2022-10-18T08:40:25.196Z,5.6
2022-10-18T08:41:32.367Z,5.6
2022-10-18T08:42:39.437Z,5.6
2022-10-18T08:44:53.109Z,5.7
2022-10-18T08:46:00.261Z,5.7
2022-10-18T08:47:07.305Z,5.8
2022-10-18T08:48:13.894Z,5.8
2022-10-18T08:49:21.018Z,5.9
2022-10-18T08:50:28.137Z,5.9
2022-10-18T08:52:42.378Z,6
2022-10-18T08:53:49.459Z,6.1
2022-10-18T08:54:56.047Z,6.1
2022-10-18T08:56:03.081Z,6.1
2022-10-18T08:57:10.266Z,6.1
2022-10-18T08:58:17.346Z,6.1
2022-10-18T08:59:25.580Z,6.2
2022-10-18T09:00:31.010Z,6.2
2022-10-18T09:01:38.329Z,6.3
2022-10-18T09:02:45.236Z,6.3
2022-10-18T09:03:52.338Z,6.3
2022-10-18T09:04:59.448Z,6.3
2022-10-18T09:06:06.054Z,6.3
2022-10-18T09:07:13.220Z,6.3
2022-10-18T09:08:20.233Z,6.4
2022-10-18T09:09:27.451Z,6.4
2022-10-18T09:10:33.965Z,6.4
2022-10-18T09:12:48.247Z,6.5
2022-10-18T09:13:55.258Z,6.6
2022-10-18T09:15:02.345Z,6.6
2022-10-18T09:16:09.029Z,6.6
2022-10-18T09:17:16.421Z,6.7
2022-10-18T09:18:23.127Z,6.7
2022-10-18T09:19:30.269Z,6.8
2022-10-18T09:20:37.325Z,6.8
2022-10-18T09:21:43.969Z,6.9
2022-10-18T09:22:51.037Z,7
2022-10-18T09:23:58.153Z,7
2022-10-18T09:25:05.250Z,7.1
2022-10-18T09:26:12.368Z,7.2
2022-10-18T09:27:18.955Z,7.3
2022-10-18T09:28:26.086Z,7.3
2022-10-18T09:29:33.207Z,7.4
2022-10-18T09:30:40.288Z,7.5
2022-10-18T09:31:47.448Z,7.5
2022-10-18T09:32:53.916Z,7.6
2022-10-18T09:34:01.108Z,7.6
2022-10-18T09:35:08.169Z,7.7
2022-10-18T09:36:15.305Z,7.7
2022-10-18T09:37:22.356Z,7.8
2022-10-18T09:38:28.974Z,7.8
2022-10-18T09:39:36.072Z,8
2022-10-18T09:40:43.148Z,8
2022-10-18T09:41:50.348Z,8.1
2022-10-18T09:42:57.447Z,8.2
2022-10-18T09:45:11.044Z,8.4
2022-10-18T09:46:17.745Z,8.5
2022-10-18T09:47:25.324Z,8.6
2022-10-18T09:48:32.361Z,8.7
2022-10-18T09:49:38.991Z,8.9
2022-10-18T09:50:46.118Z,8.9
2022-10-18T09:51:53.177Z,9.1
2022-10-18T09:54:07.389Z,9.2
2022-10-18T09:56:21.054Z,9.2
2022-10-18T09:57:28.164Z,9.3
2022-10-18T09:58:35.339Z,9.4
2022-10-18T09:59:42.378Z,9.4
2022-10-18T10:00:49.050Z,9.5
2022-10-18T10:01:56.153Z,9.6
2022-10-18T10:03:03.229Z,9.6
2022-10-18T10:04:10.325Z,9.7
2022-10-18T10:05:17.485Z,9.8
2022-10-18T10:06:24.019Z,9.8
2022-10-18T10:08:38.202Z,10
2022-10-18T10:09:45.312Z,10.1
2022-10-18T10:10:51.900Z,10.1
2022-10-18T10:11:59.107Z,10.2
2022-10-18T10:13:06.163Z,10.2
2022-10-18T10:15:20.423Z,10.4
2022-10-18T10:16:27.504Z,10.4
2022-10-18T10:17:34.575Z,10.4
2022-10-18T10:18:41.084Z,10.5
2022-10-18T10:19:48.365Z,10.5
2022-10-18T10:20:55.323Z,10.6
2022-10-18T10:22:02.520Z,10.6
2022-10-18T10:23:09.104Z,10.6
2022-10-18T10:24:16.116Z,10.7
2022-10-18T10:25:23.202Z,10.7
2022-10-18T10:26:30.341Z,10.7
2022-10-18T10:27:37.478Z,10.8
2022-10-18T10:28:44.214Z,10.8
2022-10-18T10:29:51.172Z,10.8
2022-10-18T10:30:58.280Z,10.8
2022-10-18T10:32:05.419Z,10.8
2022-10-18T10:33:11.942Z,10.8
2022-10-18T10:34:19.048Z,10.8
2022-10-18T10:35:41.317Z,10.9
2022-10-18T10:36:33.214Z,10.9
2022-10-18T10:37:40.375Z,10.9
2022-10-18T10:38:47.017Z,10.8
2022-10-18T10:40:13.758Z,10.8
2022-10-18T10:41:01.178Z,10.8
2022-10-18T10:43:32.896Z,10.7
2022-10-18T10:44:21.930Z,10.8
2022-10-18T10:45:29.794Z,10.8
2022-10-18T10:46:36.154Z,10.8
2022-10-18T10:47:43.280Z,10.8
2022-10-18T10:48:50.365Z,10.7
2022-10-18T10:49:57.020Z,10.8
2022-10-18T10:51:04.088Z,10.8
2022-10-18T10:52:26.419Z,10.7
2022-10-18T10:53:18.327Z,10.7
2022-10-18T10:54:25.418Z,10.7
2022-10-18T10:55:35.279Z,10.7
2022-10-18T10:56:39.199Z,10.7
2022-10-18T10:57:46.202Z,10.7
2022-10-18T11:00:00.412Z,10.7
2022-10-18T11:01:10.502Z,10.8
2022-10-18T11:02:14.167Z,10.8
2022-10-18T11:03:28.924Z,10.8
2022-10-18T11:04:28.281Z,10.9
2022-10-18T11:05:35.389Z,10.9
2022-10-18T11:06:41.976Z,10.9
2022-10-18T11:07:49.099Z,10.9
2022-10-18T11:08:56.210Z,10.9
2022-10-18T11:10:03.313Z,10.9
2022-10-18T11:11:10.366Z,10.9
2022-10-18T11:13:24.152Z,10.9
2022-10-18T11:14:31.208Z,10.9
2022-10-18T11:15:38.369Z,10.9
2022-10-18T11:16:45.509Z,10.9
2022-10-18T11:17:51.990Z,10.9
2022-10-18T11:18:59.142Z,11
2022-10-18T11:20:06.273Z,11
2022-10-18T11:21:13.329Z,11
2022-10-18T11:22:20.502Z,11
2022-10-18T11:23:27.001Z,11
2022-10-18T11:24:34.190Z,11
2022-10-18T11:25:41.185Z,11
2022-10-18T11:26:48.855Z,11.1
2022-10-18T11:27:55.478Z,11.1
2022-10-18T11:29:02.167Z,11
2022-10-18T11:30:09.190Z,10.9
2022-10-18T11:31:16.218Z,10.9
2022-10-18T11:32:23.382Z,10.9
2022-10-18T11:33:56.291Z,10.9
2022-10-18T11:34:37.058Z,10.9
2022-10-18T11:35:44.173Z,10.8
2022-10-18T11:37:08.929Z,10.9
2022-10-18T11:37:58.401Z,10.9
2022-10-18T11:39:04.962Z,10.8
2022-10-18T11:40:12.057Z,10.8
2022-10-18T11:41:19.225Z,10.8
2022-10-18T11:42:26.295Z,10.7
2022-10-18T11:43:57.194Z,10.8
2022-10-18T11:44:39.991Z,10.8
2022-10-18T11:45:47.034Z,10.7
2022-10-18T11:46:54.137Z,10.7
2022-10-18T11:48:01.205Z,10.6
2022-10-18T11:49:08.373Z,10.6
2022-10-18T11:50:14.972Z,10.6
2022-10-18T11:51:29.794Z,10.6
2022-10-18T11:52:29.288Z,10.6
2022-10-18T11:53:36.286Z,10.6
2022-10-18T11:54:43.332Z,10.6
2022-10-18T11:55:50.027Z,10.6
2022-10-18T11:56:57.167Z,10.6
2022-10-18T11:58:04.153Z,10.6
2022-10-18T11:59:11.282Z,10.5
2022-10-18T12:00:18.398Z,10.5
2022-10-18T12:01:27.749Z,10.5
2022-10-18T12:03:39.274Z,10.5
2022-10-18T12:04:58.422Z,10.5
2022-10-18T12:05:53.354Z,10.5
2022-10-18T12:06:59.951Z,10.5
2022-10-18T12:08:07.180Z,10.5
2022-10-18T12:09:14.239Z,10.4
2022-10-18T12:10:31.486Z,10.4
2022-10-18T12:11:28.413Z,10.4
2022-10-18T12:13:42.154Z,10.4
2022-10-18T12:14:48.653Z,10.4
2022-10-18T12:15:56.277Z,10.4
2022-10-18T12:17:35.733Z,10.4
2022-10-18T12:18:10.039Z,10.4
2022-10-18T12:19:17.155Z,10.4
2022-10-18T12:20:24.229Z,10.4
2022-10-18T12:21:31.318Z,10.4
2022-10-18T12:22:38.387Z,10.4
2022-10-18T12:23:44.979Z,10.4
2022-10-18T12:24:52.049Z,10.4
2022-10-18T12:25:59.203Z,10.4
2022-10-18T12:27:06.468Z,10.4
2022-10-18T12:28:13.363Z,10.4
2022-10-18T12:29:20.045Z,10.3
2022-10-18T12:30:27.135Z,10.3
2022-10-18T12:31:34.243Z,10.3
2022-10-18T12:32:56.273Z,10.2
2022-10-18T12:33:48.405Z,10.2
2022-10-18T12:34:55.043Z,10.2
2022-10-18T12:36:02.149Z,10.1
2022-10-18T12:37:09.214Z,10.1
2022-10-18T12:38:16.342Z,10
2022-10-18T12:39:32.474Z,10
2022-10-18T12:41:37.071Z,10
2022-10-18T12:42:44.212Z,10
2022-10-18T12:43:51.350Z,10
2022-10-18T12:44:57.936Z,10
2022-10-18T12:46:08.252Z,10
2022-10-18T12:47:12.209Z,10
2022-10-18T12:48:19.256Z,10
2022-10-18T12:49:26.315Z,10
2022-10-18T12:50:32.919Z,10
2022-10-18T12:51:40.128Z,10
2022-10-18T12:52:47.160Z,10
2022-10-18T12:53:54.260Z,9.9
2022-10-18T12:55:01.344Z,9.9
2022-10-18T12:56:07.956Z,9.9
2022-10-18T12:57:15.128Z,9.9
2022-10-18T12:58:22.111Z,9.9
2022-10-18T12:59:29.297Z,9.9
2022-10-18T13:00:36.346Z,9.9
2022-10-18T13:01:43.018Z,9.9
2022-10-18T13:02:50.059Z,9.9
2022-10-18T13:03:57.161Z,9.9
2022-10-18T13:05:06.795Z,9.9
2022-10-18T13:07:17.948Z,9.9
2022-10-18T13:09:32.138Z,10
2022-10-18T13:10:39.342Z,10
2022-10-18T13:11:46.413Z,9.9
2022-10-18T13:12:52.912Z,9.9
2022-10-18T13:14:00.192Z,9.9
2022-10-18T13:15:24.720Z,9.9
2022-10-18T13:16:14.282Z,9.9
2022-10-18T13:17:21.469Z,9.9
2022-10-18T13:18:27.989Z,9.9
2022-10-18T13:19:35.167Z,9.9
2022-10-18T13:20:42.169Z,9.9
2022-10-18T13:21:49.317Z,10
2022-10-18T13:22:56.420Z,10
2022-10-18T13:24:02.957Z,10
2022-10-18T13:25:10.065Z,10
2022-10-18T13:26:17.178Z,10
2022-10-18T13:27:35.449Z,10.1
2022-10-18T13:28:31.501Z,10.1
2022-10-18T13:29:38.018Z,10.2
2022-10-18T13:30:45.100Z,10.2
2022-10-18T13:31:52.162Z,10.2
2022-10-18T13:32:59.330Z,10.2
2022-10-18T13:34:06.388Z,10.2
2022-10-18T13:35:12.979Z,10.3
2022-10-18T13:36:22.971Z,10.3
2022-10-18T13:38:34.381Z,10.3
2022-10-18T13:39:41.424Z,10.4
2022-10-18T13:40:47.982Z,10.4
2022-10-18T13:41:57.499Z,10.4
2022-10-18T13:43:02.178Z,10.4
2022-10-18T13:44:09.348Z,10.5
2022-10-18T13:45:16.379Z,10.6
2022-10-18T13:46:22.996Z,10.6
2022-10-18T13:47:30.099Z,10.7
2022-10-18T13:48:37.280Z,10.7
2022-10-18T13:49:44.310Z,10.7
2022-10-18T13:50:51.429Z,10.8
2022-10-18T13:51:58.113Z,10.8
2022-10-18T13:53:05.121Z,10.9
2022-10-18T13:54:12.221Z,10.9
2022-10-18T13:55:19.391Z,10.9
2022-10-18T13:56:25.896Z,11
2022-10-18T13:57:33.026Z,11
2022-10-18T13:58:48.832Z,11.1
2022-10-18T13:59:47.289Z,11.1
2022-10-18T14:00:54.367Z,11.1
2022-10-18T14:02:01.050Z,11.1
2022-10-18T14:03:12.851Z,11.2
2022-10-18T14:04:15.112Z,11.2
2022-10-18T14:05:25.140Z,11.3
2022-10-18T14:06:29.388Z,11.3
2022-10-18T14:07:36.023Z,11.4
2022-10-18T14:11:02.393Z,11.4
2022-10-18T14:12:04.585Z,11.4
2022-10-18T14:13:10.920Z,11.5
2022-10-18T14:14:18.118Z,11.5
2022-10-18T14:15:25.241Z,11.6
2022-10-18T14:16:32.196Z,11.6
2022-10-18T14:19:53.202Z,11.7
2022-10-18T14:21:14.229Z,11.8
2022-10-18T14:22:07.287Z,11.8
2022-10-18T14:23:14.457Z,11.8
2022-10-18T14:24:21.079Z,11.8
2022-10-18T14:25:28.043Z,11.8
2022-10-18T14:26:35.308Z,11.9
2022-10-18T14:27:42.401Z,11.9
2022-10-18T14:28:59.699Z,11.9
2022-10-18T14:29:55.941Z,11.9
2022-10-18T14:31:03.112Z,11.9
2022-10-18T14:32:10.219Z,11.9
2022-10-18T14:33:17.253Z,11.9
2022-10-18T14:34:24.427Z,11.9
2022-10-18T14:35:33.313Z,12
2022-10-18T14:36:38.056Z,12
2022-10-18T14:37:45.319Z,12.1
2022-10-18T14:39:59.366Z,12.2
2022-10-18T14:41:06.052Z,12.2
2022-10-18T14:42:13.254Z,12.2
2022-10-18T14:43:20.170Z,12.2
2022-10-18T14:44:27.339Z,12.2
2022-10-18T14:45:35.435Z,12.2
2022-10-18T14:46:41.019Z,12.2
2022-10-18T14:47:48.077Z,12.2
2022-10-18T14:48:55.177Z,12.1
2022-10-18T14:50:02.464Z,12
2022-10-18T14:51:08.943Z,12
2022-10-18T14:52:16.081Z,12
2022-10-18T14:53:23.159Z,11.9
2022-10-18T14:54:31.953Z,11.9
2022-10-18T14:55:37.358Z,11.9
2022-10-18T14:56:43.842Z,11.9
2022-10-18T14:57:51.053Z,11.9
2022-10-18T14:58:58.087Z,11.8
2022-10-18T15:01:12.443Z,11.7
2022-10-18T15:02:19.046Z,11.7
2022-10-18T15:03:25.990Z,11.7
2022-10-18T15:04:33.246Z,11.7
2022-10-18T15:05:40.347Z,11.8
2022-10-18T15:07:54.084Z,11.8
2022-10-18T15:09:00.964Z,11.8
2022-10-18T15:10:08.223Z,11.8
2022-10-18T15:11:15.311Z,11.7
2022-10-18T15:12:22.535Z,11.7
2022-10-18T15:14:36.003Z,11.7
2022-10-18T15:15:43.071Z,11.7
2022-10-18T15:16:50.277Z,11.7
2022-10-18T15:17:57.406Z,11.7
2022-10-18T15:19:04.001Z,11.6
2022-10-18T15:20:10.977Z,11.6
2022-10-18T15:21:18.115Z,11.6
2022-10-18T15:22:33.023Z,11.6
2022-10-18T15:23:32.410Z,11.6
2022-10-18T15:24:39.001Z,11.6
2022-10-18T15:25:46.106Z,11.6
2022-10-18T15:26:53.097Z,11.6
2022-10-18T15:28:00.390Z,11.7
2022-10-18T15:29:07.556Z,11.7
2022-10-18T15:30:13.983Z,11.7
2022-10-18T15:31:20.988Z,11.7
2022-10-18T15:32:28.268Z,11.7
2022-10-18T15:33:35.331Z,11.7
2022-10-18T15:35:49.001Z,11.7
2022-10-18T15:38:03.299Z,11.7
2022-10-18T15:39:10.345Z,11.7
2022-10-18T15:40:17.583Z,11.7
2022-10-18T15:42:31.188Z,11.7
2022-10-18T15:43:38.118Z,11.7
2022-10-18T15:44:45.345Z,11.6
2022-10-18T15:45:52.452Z,11.6
2022-10-18T15:46:59.071Z,11.6
2022-10-18T15:48:06.134Z,11.6
2022-10-18T15:49:13.245Z,11.6
2022-10-18T15:50:20.438Z,11.5
2022-10-18T15:51:27.376Z,11.5
2022-10-18T15:52:38.098Z,11.5
2022-10-18T15:53:41.022Z,11.4
2022-10-18T15:55:55.377Z,11.4
2022-10-18T15:57:02.392Z,11.4
2022-10-18T15:58:09.067Z,11.3
2022-10-18T15:59:16.056Z,11.3
2022-10-18T16:00:23.298Z,11.3
2022-10-18T16:01:30.426Z,11.3
2022-10-18T16:02:36.855Z,11.2
2022-10-18T16:03:44.201Z,11.2
2022-10-18T16:04:51.035Z,11.2
2022-10-18T16:05:58.333Z,11.2
2022-10-18T16:07:05.483Z,11.1
2022-10-18T16:08:11.836Z,11.1
2022-10-18T16:09:19.168Z,11
2022-10-18T16:10:26.068Z,11
2022-10-18T16:11:33.302Z,11
2022-10-18T16:12:40.384Z,11
2022-10-18T16:13:48.228Z,10.9
2022-10-18T16:14:53.944Z,10.9
2022-10-18T16:16:01.156Z,10.9
2022-10-18T16:18:15.425Z,10.9
2022-10-18T16:19:21.962Z,10.9
2022-10-18T16:20:28.988Z,10.9
2022-10-18T16:21:36.205Z,10.8
2022-10-18T16:23:50.432Z,10.7
2022-10-18T16:24:56.917Z,10.7
2022-10-18T16:26:03.977Z,10.7
2022-10-18T16:27:11.183Z,10.7
2022-10-18T16:28:18.221Z,10.7
2022-10-18T16:29:25.322Z,10.6
2022-10-18T16:30:31.996Z,10.6
2022-10-18T16:31:39.106Z,10.6
2022-10-18T16:32:46.316Z,10.6
2022-10-18T16:33:53.184Z,10.6